Solana Beach, CA

11:56 AM PDT on July 27, 2017 (GMT -0700)
Solana Beach | | Change Station
Active Advisory: Beach Hazard Statement

Elev 198 ft 32.99 °N, 117.26 °W | Updated 59 seconds ago

Partly Cloudy
Partly Cloudy
77.9 °F
Feels Like 80 °F
N
0.0
Wind Variable Wind from SW
Gusts 6.0 mph

Today
High -- | Low -- °F
--% Chance of Precip.
Yesterday
High -- | Low -- °F
Precip. -- in
Pressure 29.94 in
Visibility 10.0 miles
Clouds Clear
Heat Index 80 °F
Dew Point 70 °F
Humidity 77%
Rainfall 0.00 in
Snow Depth Not available.
5:59 AM 7:51 PM
Waxing Crescent, 23% visible
METAR KCRQ 271853Z AUTO 28007KT 10SM CLR 23/19 A2994 RMK AO2 SLP136 T02330189
Pressure 29.94 in
Visibility 10.0 miles
Clouds Clear
Heat Index 80 °F
Dew Point 70 °F
Humidity 77%
Rainfall 0.00 in
Snow Depth Not available.
5:59 AM 7:51 PM
Waxing Crescent, 23% visible
METAR KCRQ 271853Z AUTO 28007KT 10SM CLR 23/19 A2994 RMK AO2 SLP136 T02330189

Get Your Daily Forecast Email!

Thanks for signing up!

Be on the lookout for a verification email in your inbox.

You'll start receiving severe weather alerts in your inbox..

×

10-Day Weather Forecast

Almanac

Astronomy

Jul. 27, 2017 Rise Set
Actual Time
Civil Twilight
Nautical Twilight
Astronomical Twilight
Moon
Length of Visible Light
Length of Day
Tomorrow will be .
, % of the Moon is Illuminated

Today's Extremes

State Highs State Lows

Community

WunderPhotos

Category 6

Welcome to Category 6. This is the collective home for Weather Underground's featured writeups by Dr. Jeff Masters (right), Bob Henson (left), Chris Burt, and other regular contributors.

Nearby

Air Quality

  Air Quality AQ Index Pollutant
Not available.

Snow Depth

Station Depth Elevation

Earthquake Activity

City Distance Mag. Time & Date
Minimum magnitude displayed is 2.5.

Coastal Water Temperatures

Place Temperature

Stations

Nearby Weather Stations

Station Location Temp. Windchill Dew Point Humidity Wind Precip. Elev Updated Type
                   

Watches & Warnings

Beach Hazard Statement
Issued: 5:39 AM PDT Jul. 27, 2017 – National Weather Service

... Beach hazards statement remains in effect from Friday morning
through late Monday night...

* surf heights... 5 to 7 feet with sets to 9 feet.

* Swells... a moderate period south swell of 5 feet from 180 to
190 degrees along with a long period south swell of 2 to 3
feet from 180 degrees.

* Locations... highest surf likely along Orange County beaches and
north of Carlsbad in San Diego County.

* Timing... surf forecast to build late Friday through early
Saturday... peaking late Saturday through Tuesday... then
gradually lowering on Wednesday.

* Impacts... dangerous swimming conditions due to large waves and
strong rip and longshore currents. Large breaking waves
possibly over-topping jetties.

Precautionary/preparedness actions...

A beach hazards statement is issued when threats such as rip
currents and other hazards are possible. Caution should be used
when in or near the water.